Latest Weather Observations for Telfer

IDW60801

Issued at 2:32 am WST Friday 6 March 2015 (issued every 30 minutes, with the page automatically refreshed every 10 minutes)

About weather observations | Map of weather stations | Latest weather observations for WA | Other Formats
Station Details ID: 013030 Name: TELFER AERO Lat: -21.71 Lon: 122.23 Height: 291.9 m
Data from the previous 72 hours. | See also: Recent months at Telfer
Date/Time
WST
Temp
°C
App
Temp
°C
Dew
Point
Rel
Hum
%
Delta-T
°C
Wind Press
QNH
hPa
Press
MSL
hPa
Rain
since 9 am
mm
Dir
 
Spd
km/h
Gust
km/h
Spd
kts
Gust
kts
06/02:30am 27.0 25.1 20.1 66 4.6 S 30 41 16 22 1011.5 1009.3 0.8
06/02:00am 26.7 25.7 20.5 69 4.1 SSW 26 33 14 18 1011.5 1009.3 0.8
06/01:30am 24.9 25.0 21.8 83 2.1 SW 24 35 13 19 1011.9 1009.7 0.8
06/01:00am 25.1 23.1 20.8 77 2.9 SSW 32 41 17 22 1011.8 1009.6 0.4
06/12:30am 25.7 24.5 20.9 75 3.2 SW 28 41 15 22 1011.9 1009.7 0.4
06/12:00am 27.1 24.5 19.4 62 5.0 SW 32 39 17 21 1012.1 1009.9 0.4
 
Date/Time
WST
Temp
°C
App
Temp
°C
Dew
Point
Rel
Hum
%
Delta-T
°C
Wind Press
QNH
hPa
Press
MSL
hPa
Rain
since 9 am
mm
Dir
 
Spd
km/h
Gust
km/h
Spd
kts
Gust
kts
05/11:30pm 27.0 25.0 19.1 62 5.1 WSW 28 39 15 21 1012.6 1010.4 0.4
05/11:00pm 26.2 23.7 19.8 68 4.2 WNW 32 39 17 21 1012.6 1010.4 0.4
05/10:30pm 26.1 28.0 22.0 78 2.8 NW 15 24 8 13 1013.5 1011.2 0.4
05/10:00pm 26.9 26.5 21.0 70 3.9 N 24 37 13 20 1013.2 1010.9 0.2
05/09:54pm 27.2 28.5 22.4 75 3.3 NNW 19 37 10 20 1013.2 1010.9 0.2
05/09:30pm 27.8 29.6 21.1 67 4.5 SW 13 19 7 10 1012.1 1009.9 0.2
05/09:00pm 26.7 28.5 21.9 75 3.2 W 15 17 8 9 1012.0 1009.8 0.2
05/08:30pm 26.7 27.2 20.1 67 4.4 NW 17 20 9 11 1012.4 1010.2 0.0
05/08:00pm 27.2 26.9 20.3 66 4.6 NNW 22 33 12 18 1012.5 1010.3 0.0
05/07:30pm 28.6 28.4 20.6 62 5.3 N 22 39 12 21 1012.5 1010.3 0.0
05/07:00pm 29.1 28.5 20.5 59 5.7 NNW 24 35 13 19 1011.7 1009.5 0.0
05/06:45pm 30.0 30.1 20.3 56 6.5 NNW 20 37 11 20 1011.3 1009.1 0.0
05/06:30pm 35.0 36.0 18.6 38 10.9 E 11 24 6 13 1010.7 1008.4 0.0
05/06:00pm 35.7 35.0 17.4 33 12.0 SE 17 22 9 12 1009.4 1007.2 0.0
05/05:30pm 36.0 35.8 17.7 34 12.0 SE 15 20 8 11 1009.1 1006.9 0.0
05/05:00pm 36.5 35.2 18.1 33 12.2 SE 22 33 12 18 1008.8 1006.6 0.0
05/04:30pm 36.9 36.1 18.0 33 12.5 E 19 26 10 14 1008.7 1006.5 0.0
05/04:00pm 37.2 36.3 18.2 32 12.6 SE 20 32 11 17 1008.5 1006.3 0.0
05/03:30pm 37.0 35.7 18.1 33 12.5 ESE 22 30 12 16 1008.8 1006.6 0.0
05/03:00pm 37.1 36.2 18.1 32 12.6 ESE 20 33 11 18 1009.0 1006.8 0.0
05/02:30pm 37.4 36.6 18.4 32 12.6 E 20 32 11 17 1009.6 1007.3 0.0
05/02:00pm 37.2 35.2 18.2 32 12.6 ESE 26 44 14 24 1010.0 1007.7 0.0
05/01:30pm 36.5 34.3 18.6 35 11.9 E 28 41 15 22 1010.5 1008.2 0.0
05/01:00pm 36.5 34.3 18.6 35 11.9 ESE 28 41 15 22 1010.9 1008.6 0.0
05/12:30pm 35.4 34.2 18.5 37 11.2 ESE 22 35 12 19 1011.3 1009.1 0.0
05/12:00pm 35.0 33.3 19.0 39 10.6 ESE 26 43 14 23 1011.7 1009.5 0.0
05/11:30am 33.9 31.4 18.8 41 10.0 ESE 30 46 16 25 1012.0 1009.8 0.0
05/11:21am 33.8 31.6 18.7 40 10.0 ESE 28 46 15 25 1012.2 1010.0 0.0
05/11:00am 33.2 30.1 18.9 42 9.5 ESE 33 43 18 23 1012.5 1010.3 0.0
05/10:30am 32.4 29.0 17.8 41 9.5 ESE 32 44 17 24 1012.8 1010.6 0.0
05/10:00am 31.6 28.5 17.5 43 9.1 SE 30 43 16 23 1013.2 1010.9 0.0
05/09:30am 30.4 26.8 17.1 44 8.5 SE 32 43 17 23 1013.2 1010.9 0.0
05/09:00am 29.4 25.5 16.9 47 7.9 ESE 33 46 18 25 1013.2 1010.9 0.0
05/08:30am 28.4 24.0 16.7 49 7.4 SE 35 44 19 24 1013.3 1011.0 0.0
05/08:00am 27.0 21.9 15.7 50 7.0 SE 37 43 20 23 1013.3 1011.0 0.0
05/07:30am 26.2 21.7 15.3 51 6.7 SE 33 46 18 25 1012.9 1010.7 0.0
05/07:00am 25.1 20.6 15.4 55 5.9 SE 33 39 18 21 1012.7 1010.5 0.0
05/06:30am 24.3 20.3 15.2 57 5.5 SE 30 41 16 22 1012.8 1010.6 0.0
05/06:00am 23.9 19.6 15.4 59 5.2 SE 32 41 17 22 1012.4 1010.2 0.0
05/05:30am 24.0 19.7 15.5 59 5.2 SE 32 39 17 21 1012.2 1010.0 0.0
05/05:00am 24.1 20.2 15.6 59 5.2 SE 30 39 16 21 1011.6 1009.4 0.0
05/04:30am 24.2 20.0 15.7 59 5.2 SSE 32 39 17 21 1011.5 1009.3 0.0
05/04:00am 24.4 21.0 15.9 59 5.2 SSE 28 35 15 19 1011.4 1009.2 0.0
05/03:30am 24.9 20.9 16.1 58 5.4 SSE 32 41 17 22 1011.4 1009.2 0.0
05/03:00am 25.3 21.6 15.9 56 5.8 SSE 30 39 16 21 1011.0 1008.7 0.0
05/02:30am 25.7 22.1 16.3 56 5.8 SSE 30 41 16 22 1011.1 1008.8 0.0
05/02:00am 26.2 23.0 16.4 54 6.1 SSE 28 37 15 20 1011.1 1008.8 0.0
05/01:30am 26.5 24.5 16.4 53 6.3 SSE 22 37 12 20 1011.1 1008.8 0.0
05/01:00am 26.6 23.6 16.8 55 6.2 SSE 28 35 15 19 1011.2 1009.0 0.0
05/12:30am 26.6 25.1 18.5 61 5.2 SSE 24 32 13 17 1011.6 1009.4 0.0
05/12:00am 26.8 25.3 18.6 60 5.3 SSE 24 30 13 16 1011.6 1009.4 0.0
 
Date/Time
WST
Temp
°C
App
Temp
°C
Dew
Point
Rel
Hum
%
Delta-T
°C
Wind Press
QNH
hPa
Press
MSL
hPa
Rain
since 9 am
mm
Dir
 
Spd
km/h
Gust
km/h
Spd
kts
Gust
kts
04/11:30pm 27.2 26.2 18.8 60 5.4 SSE 22 30 12 16 1011.8 1009.6 0.0
04/11:00pm 27.0 27.3 19.6 64 4.9 SSE 17 20 9 11 1011.8 1009.6 0.0
04/10:30pm 27.6 28.0 19.1 59 5.5 SE 15 22 8 12 1012.2 1010.0 0.0
04/10:00pm 27.9 26.6 19.1 58 5.7 SSE 24 30 13 16 1012.2 1010.0 0.0
04/09:30pm 27.9 26.4 18.6 57 6.0 SSE 24 30 13 16 1012.3 1010.1 0.0
04/09:00pm 28.8 27.7 18.6 54 6.6 SSE 22 32 12 17 1011.7 1009.5 0.0
04/08:30pm 29.4 28.0 17.9 50 7.4 SSE 22 28 12 15 1011.9 1009.7 0.0
04/08:00pm 29.7 27.0 17.5 48 7.8 SSE 28 35 15 19 1011.1 1008.8 0.0
04/07:30pm 30.2 28.2 18.3 49 7.7 SSE 26 35 14 19 1010.9 1008.6 0.0
04/07:00pm 30.7 30.8 19.1 50 7.6 SSE 17 20 9 11 1010.5 1008.2 0.0
04/06:30pm 31.5 30.4 17.4 43 9.1 S 19 26 10 14 1009.9 1007.6 0.0
04/06:00pm 32.3 28.8 17.4 41 9.6 SE 32 46 17 25 1009.9 1007.6 0.0
04/05:56pm 32.5 29.5 16.8 39 10.1 SSE 28 46 15 25 1009.8 1007.5 0.0
04/05:30pm 33.7 31.7 17.4 37 10.6 SSE 24 32 13 17 1009.1 1006.9 0.0
04/05:00pm 34.3 31.8 17.1 36 11.1 S 26 33 14 18 1008.7 1006.5 0.0
04/04:30pm 34.5 32.3 16.8 34 11.4 SSE 24 33 13 18 1008.2 1006.0 0.0
04/04:00pm 34.6 32.9 17.3 35 11.2 SSE 22 32 12 17 1008.5 1006.3 0.0
04/03:30pm 34.8 33.2 17.5 35 11.3 SSE 22 33 12 18 1008.6 1006.4 0.0
04/03:00pm 34.4 32.9 17.6 37 11.0 SSE 22 33 12 18 1008.8 1006.6 0.0
04/02:30pm 34.4 32.5 17.6 37 10.9 SSE 24 33 13 18 1009.1 1006.9 0.0
04/02:00pm 33.8 31.8 17.5 38 10.6 SSE 24 37 13 20 1009.3 1007.1 0.0
04/01:30pm 33.7 32.5 17.4 37 10.6 SSE 20 30 11 16 1009.9 1007.6 0.0
04/01:00pm 32.9 30.9 17.5 39 10.0 SSE 24 33 13 18 1010.3 1008.0 0.0
04/12:30pm 32.5 31.2 17.2 40 9.9 SSE 20 32 11 17 1010.9 1008.6 0.0
04/12:00pm 32.7 31.4 18.1 42 9.5 SE 22 30 12 16 1011.1 1008.8 0.0
04/11:30am 31.4 29.5 17.7 44 8.9 SSE 24 33 13 18 1011.4 1009.2 0.0
04/11:00am 30.8 28.6 17.8 45 8.4 SE 26 37 14 20 1011.5 1009.3 0.0
04/10:30am 30.0 27.4 17.8 48 7.9 SE 28 37 15 20 1011.9 1009.7 0.0
04/10:00am 28.9 26.4 18.1 52 7.0 SE 28 37 15 20 1012.2 1010.0 0.0
04/09:30am 27.6 24.0 17.7 54 6.3 SE 33 41 18 22 1012.3 1010.1 0.0
04/09:00am 27.0 24.1 18.0 58 5.8 SE 30 39 16 21 1012.4 1010.2 17.6
04/08:30am 26.3 22.5 18.2 61 5.2 SE 35 46 19 25 1012.1 1009.9 17.4
04/08:00am 25.3 21.3 18.5 66 4.4 SE 37 46 20 25 1011.9 1009.7 17.4
04/07:30am 24.4 21.4 19.0 72 3.5 SSE 33 41 18 22 1011.6 1009.4 17.4
04/07:00am 23.8 22.0 19.5 77 2.8 SSE 28 37 15 20 1011.6 1009.4 17.4
04/06:30am 23.2 22.3 19.8 81 2.2 SSE 24 33 13 18 1011.2 1009.0 17.4
04/06:00am 23.2 22.4 20.0 82 2.1 SSE 24 32 13 17 1011.0 1008.7 17.4
04/05:30am 23.5 22.7 20.0 81 2.3 SSE 24 32 13 17 1010.7 1008.4 17.4
04/05:00am 23.8 22.5 19.9 79 2.5 SSE 26 33 14 18 1010.3 1008.0 17.4
04/04:30am 24.6 23.4 20.9 80 2.5 SSE 28 37 15 20 1010.0 1007.7 17.4
04/04:00am 25.4 26.8 21.9 81 2.4 S 17 24 9 13 1009.7 1007.4 17.4
04/03:30am 25.0 27.0 22.3 85 1.8 SSW 15 22 8 12 1009.4 1007.2 17.4
04/03:00am 25.1 26.7 21.4 80 2.5 SSW 15 19 8 10 1009.6 1007.3 17.4
04/02:30am 25.1 26.8 21.6 81 2.3 S 15 20 8 11 1009.1 1006.9 17.4
04/02:00am 24.5 27.6 24.2 98 0.2 SW 15 20 8 11 1009.4 1007.2 17.4
04/01:30am 24.0 26.8 23.0 94 0.7 WSW 13 17 7 9 1009.8 1007.5 17.4
04/01:00am 23.8 26.4 21.9 89 1.3 WNW 11 15 6 8 1011.2 1009.0 16.2
04/12:30am 25.8 29.3 23.5 87 1.6 NNE 11 17 6 9 1012.2 1010.0 14.0
04/12:00am 26.2 29.1 22.5 80 2.5 E 11 19 6 10 1011.6 1009.4 13.6
 
Date/Time
WST
Temp
°C
App
Temp
°C
Dew
Point
Rel
Hum
%
Delta-T
°C
Wind Press
QNH
hPa
Press
MSL
hPa
Rain
since 9 am
mm
Dir
 
Spd
km/h
Gust
km/h
Spd
kts
Gust
kts
03/11:30pm 26.5 28.4 22.1 77 3.0 S 15 20 8 11 1009.7 1007.4 13.6
03/11:00pm 26.6 28.0 21.8 75 3.2 S 17 22 9 12 1009.7 1007.4 13.6
03/10:57pm 26.6 27.5 21.6 74 3.4 S 19 24 10 13 1009.8 1007.5 13.6
03/10:30pm 27.8 28.8 21.1 67 4.5 ENE 17 32 9 17 1011.8 1009.6 11.6
03/10:00pm 27.1 28.8 22.3 75 3.3 SE 17 20 9 11 1010.4 1008.1 11.6
03/09:30pm 27.8 28.1 21.6 69 4.2 S 22 32 12 17 1009.9 1007.6 11.6
03/09:00pm 26.9 26.1 20.0 66 4.6 S 24 32 13 17 1010.0 1007.7 11.6
03/08:36pm 25.0 23.9 19.4 71 3.6 NNE 24 44 13 24 1009.8 1007.5 10.6
03/08:30pm 24.7 22.3 19.1 71 3.6 ENE 30 67 16 36 1011.8 1009.6 6.6
03/08:29pm 25.1 22.3 19.0 69 3.9 ENE 32 67 17 36 1011.7 1009.5 6.0
03/08:15pm 29.3 29.3 21.0 61 5.6 E 22 50 12 27 1009.7 1007.4 0.6
03/08:00pm 34.2 33.5 18.3 39 10.5 SSE 19 22 10 12 1008.5 1006.3 0.0
03/07:30pm 34.5 36.4 18.5 38 10.6 SE 6 7 3 4 1008.1 1005.9 0.0
03/07:00pm 34.8 36.1 18.4 38 10.8 SE 9 11 5 6 1007.8 1005.5 0.0
03/06:30pm 35.3 36.2 17.5 34 11.6 ESE 9 15 5 8 1007.3 1005.0 0.0
03/06:00pm 36.0 36.8 17.2 33 12.3 E 9 13 5 7 1006.9 1004.6 0.0
03/05:30pm 36.5 36.1 17.1 31 12.6 E 15 19 8 10 1006.7 1004.4 0.0
03/05:00pm 37.0 36.6 17.1 31 13.0 ESE 15 22 8 12 1006.7 1004.4 0.0
03/04:30pm 37.1 36.7 17.1 30 13.0 ESE 15 24 8 13 1006.6 1004.3 0.0
03/04:00pm 37.6 37.2 17.1 30 13.4 E 15 24 8 13 1006.6 1004.3 0.0
03/03:30pm 37.3 36.8 16.8 29 13.3 NE 15 22 8 12 1006.9 1004.6 0.0
03/03:00pm 37.1 35.7 16.6 29 13.3 NE 19 28 10 15 1006.9 1004.6 0.0
03/02:30pm 37.9 36.6 16.8 29 13.7 SE 19 28 10 15 1007.2 1004.9 0.0
03/02:00pm 37.0 37.0 17.1 31 13.0 ESE 13 22 7 12 1007.7 1005.4 0.0
03/01:30pm 37.0 36.0 17.6 32 12.7 ESE 19 32 10 17 1008.1 1005.9 0.0
03/01:00pm 37.1 36.9 17.6 31 12.8 ENE 15 26 8 14 1008.5 1006.3 0.0
03/12:30pm 36.3 35.1 17.0 32 12.5 ESE 19 30 10 16 1009.2 1007.0 0.0
03/12:00pm 35.4 34.0 17.1 33 11.9 E 20 32 11 17 1009.8 1007.5 0.0
03/11:30am 34.6 33.5 17.8 37 11.0 ENE 20 30 11 16 1010.3 1008.0 0.0
03/11:00am 33.8 32.4 17.9 38 10.4 E 22 32 12 17 1010.5 1008.2 0.0
03/10:30am 33.4 31.4 18.3 40 9.9 E 26 35 14 19 1011.0 1008.7 0.0
03/10:00am 32.5 31.1 18.7 44 9.1 ESE 24 37 13 20 1011.2 1009.0 0.0
03/09:30am 31.9 30.1 18.8 45 8.6 E 26 37 14 20 1011.4 1009.2 0.0
03/09:00am 30.1 29.4 19.5 53 7.0 ESE 22 32 12 17 1011.4 1009.2 1.4
03/08:30am 28.2 27.1 20.2 62 5.3 ESE 26 33 14 18 1011.5 1009.3 1.2
03/08:00am 26.8 26.2 20.6 69 4.1 ESE 24 30 13 16 1011.6 1009.4 1.2
03/07:30am 25.6 26.5 21.5 78 2.7 SE 19 24 10 13 1011.6 1009.4 1.2
03/07:00am 24.5 26.3 21.8 85 1.8 SE 15 20 8 11 1011.4 1009.2 1.2
03/06:30am 23.8 25.5 21.7 88 1.4 SE 15 19 8 10 1011.2 1009.0 1.2
03/06:00am 23.4 25.9 21.8 91 1.1 SE 11 13 6 7 1010.9 1008.6 1.2
03/05:30am 23.6 26.0 21.5 88 1.4 SE 11 15 6 8 1010.5 1008.2 1.2
03/05:00am 23.8 25.6 21.1 85 1.8 ESE 13 19 7 10 1010.2 1007.9 1.2
03/04:30am 23.9 25.4 21.2 85 1.8 ESE 15 19 8 10 1010.0 1007.7 1.2
03/04:00am 24.0 25.8 21.9 88 1.4 ESE 15 19 8 10 1009.7 1007.4 1.2
03/03:30am 24.3 26.7 22.2 88 1.4 ESE 13 17 7 9 1009.3 1007.1 1.2
03/03:00am 24.5 25.7 22.2 87 1.6 ESE 19 22 10 12 1009.1 1006.9 1.2

Other Formats:

Comma delimited format used in spreadsheet applications
http://www.bom.gov.au/fwo/IDW60801/IDW60801.94319.axf

JavaScript Object Notation format (JSON) in row-major order
http://www.bom.gov.au/fwo/IDW60801/IDW60801.94319.json